ENQA weather

Troll A Platform
Norway

Public forecast

Using degrees Celsius for public forecast. Weather courtesy of forecast.io.

METAR (pilot weather report)

Retrieved 2019/09/22 06:20 UTC (34 minutes ago):

ENQA 220620Z AUTO 14011KT 9999NDV NCD 13/11 Q1013 W10/S3

TAF (pilot weather forecast)

Closest forecast is Oseberg A Platform, 28.1 nm (52.0 km) WSW. Retrieved 2019/09/22 06:57 UTC (0 seconds ago):

TAF ENOA 220500Z 2206/2306 15015KT 0100 FG VV001 PROB30 TEMPO 2206/2213 2000 BCFG BKN003 BECMG 2213/2215 CAVOK